Athol, Kansas
Current Conditions -  °F | °C
As of 1:35 AM on Saturday 29 Nov 2014 (Local Time) from KHDE Reporting Station
Clear Clear  
Wind Chill: 45°   Ceiling: Unl
Heat Index: 45°   Visibility: 10mi
Dew Point: 13°   Wind: 0mph
Humidity: 28%   Direction: NA
Pressure: 29.61"   Gusts: NA
Location:  39.77°N, 98.92°W
Report Text: KHDE 290735Z AUTO 00000KT 10SM CLR 07/M10 A2961 RMK AO2 T00721103
Loading
Personal Weather Stations






























Interactive Weather Map New forecast layout! Learn more

10-Day Weather Forecast

Advertisements
Track Severe Weather on mobile